createdAt,value
2023-02-21T00:00:16.326Z,2.40
2023-02-21T00:05:42.661Z,2.00
2023-02-21T00:11:09.129Z,2.00
2023-02-21T00:16:38.608Z,2.50
2023-02-21T00:22:03.067Z,2.30
2023-02-21T00:27:28.511Z,2.30
2023-02-21T00:32:55.209Z,2.30
2023-02-21T00:38:20.709Z,2.80
2023-02-21T00:43:52.969Z,3.20
2023-02-21T00:49:18.504Z,2.60
2023-02-21T00:54:45.176Z,2.40
2023-02-21T01:00:11.097Z,2.40
2023-02-21T01:05:37.286Z,2.20
2023-02-21T01:11:04.533Z,2.00
2023-02-21T01:16:29.764Z,2.10
2023-02-21T01:21:55.908Z,1.90
2023-02-21T01:27:21.434Z,2.30
2023-02-21T01:32:48.717Z,2.80
2023-02-21T01:38:14.857Z,2.00
2023-02-21T01:43:44.598Z,3.60
2023-02-21T01:49:12.778Z,2.00
2023-02-21T01:54:40.464Z,2.50
2023-02-21T02:00:07.737Z,2.40
2023-02-21T02:05:40.332Z,2.40
2023-02-21T02:11:10.063Z,2.00
2023-02-21T02:16:25.813Z,2.90
2023-02-21T02:22:11.722Z,2.00
2023-02-21T02:27:51.050Z,1.50
2023-02-21T02:33:37.151Z,2.10
2023-02-21T02:38:55.701Z,1.50
2023-02-21T02:44:12.246Z,2.10
2023-02-21T02:49:24.525Z,2.40
2023-02-21T02:59:39.850Z,1.30
2023-02-21T03:05:13.611Z,2.20
2023-02-21T03:10:37.108Z,1.50
2023-02-21T03:15:54.465Z,2.40
2023-02-21T03:21:05.889Z,1.90
2023-02-21T03:26:16.450Z,2.10
2023-02-21T03:31:32.789Z,2.50
2023-02-21T03:36:41.142Z,2.40
2023-02-21T03:41:50.139Z,3.10
2023-02-21T03:46:58.496Z,2.70
2023-02-21T03:52:07.299Z,2.60
2023-02-21T03:57:15.612Z,2.10
2023-02-21T04:02:26.697Z,1.90
2023-02-21T04:07:35.455Z,1.70
2023-02-21T04:12:43.921Z,2.70
2023-02-21T04:17:54.396Z,2.60
2023-02-21T04:23:03.920Z,2.40
2023-02-21T04:28:14.079Z,2.60
2023-02-21T04:33:22.651Z,3.30
2023-02-21T04:38:31.755Z,2.50
2023-02-21T04:43:39.703Z,2.30
2023-02-21T04:48:48.976Z,3.20
2023-02-21T04:53:57.283Z,1.70
2023-02-21T04:59:05.537Z,2.40
2023-02-21T05:04:13.135Z,2.80
2023-02-21T05:09:21.233Z,2.20
2023-02-21T05:14:28.623Z,3.00
2023-02-21T05:19:36.238Z,2.40
2023-02-21T05:24:45.530Z,2.30
2023-02-21T05:29:53.863Z,2.60
2023-02-21T05:35:01.802Z,3.20
2023-02-21T05:40:12.411Z,2.30
2023-02-21T05:45:20.667Z,2.00
2023-02-21T05:50:29.662Z,2.00
2023-02-21T05:55:38.469Z,2.00
2023-02-21T06:00:47.610Z,2.10
2023-02-21T06:05:57.377Z,2.10
2023-02-21T06:11:06.324Z,2.30
2023-02-21T06:16:13.748Z,1.90
2023-02-21T06:21:21.684Z,2.20
2023-02-21T06:26:29.936Z,2.00
2023-02-21T06:31:37.657Z,1.90
2023-02-21T06:36:45.539Z,2.50
2023-02-21T06:41:54.279Z,2.80
2023-02-21T06:47:02.599Z,2.90
2023-02-21T06:52:10.952Z,2.50
2023-02-21T06:57:21.177Z,2.20
2023-02-21T07:02:29.555Z,2.40
2023-02-21T07:07:38.462Z,2.40
2023-02-21T07:12:47.420Z,2.20
2023-02-21T07:17:56.127Z,1.90
2023-02-21T07:23:04.085Z,1.20
2023-02-21T07:28:12.351Z,1.90
2023-02-21T07:33:23.119Z,1.90
2023-02-21T07:38:32.966Z,2.20
2023-02-21T07:43:41.610Z,1.80
2023-02-21T07:48:50.321Z,2.30
2023-02-21T07:53:57.923Z,1.60
2023-02-21T07:59:06.473Z,2.20
2023-02-21T08:04:15.498Z,2.40
2023-02-21T08:09:24.757Z,2.00
2023-02-21T08:14:33.808Z,2.00
2023-02-21T08:19:42.134Z,3.10
2023-02-21T08:24:50.713Z,2.30
2023-02-21T08:29:58.347Z,2.60
2023-02-21T08:35:08.911Z,3.00
2023-02-21T08:40:17.414Z,2.50
2023-02-21T08:45:26.470Z,4.60
2023-02-21T08:50:34.221Z,2.90
2023-02-21T08:55:43.712Z,2.00
2023-02-21T09:00:52.362Z,2.50
2023-02-21T09:06:01.297Z,2.70
2023-02-21T09:11:10.445Z,2.50
2023-02-21T09:16:19.036Z,2.40
2023-02-21T09:21:27.194Z,4.00
2023-02-21T09:26:35.987Z,3.20
2023-02-21T09:31:44.416Z,3.50
2023-02-21T09:36:53.077Z,3.30
2023-02-21T09:42:01.241Z,3.60
2023-02-21T09:47:16.661Z,3.00
2023-02-21T09:52:31.937Z,2.50
2023-02-21T09:57:40.599Z,2.80
2023-02-21T10:02:58.426Z,2.50
2023-02-21T10:08:14.551Z,3.40
2023-02-21T10:13:40.486Z,3.10
2023-02-21T10:18:57.789Z,3.00
2023-02-21T10:24:13.554Z,3.20
2023-02-21T10:29:26.625Z,3.40
2023-02-21T10:34:36.482Z,3.40
2023-02-21T10:39:51.923Z,2.30
2023-02-21T10:45:02.765Z,2.80
2023-02-21T10:50:13.424Z,2.90
2023-02-21T10:55:32.866Z,3.40
2023-02-21T11:00:48.821Z,3.40
2023-02-21T11:05:58.222Z,3.50
2023-02-21T11:11:06.311Z,2.40
2023-02-21T11:16:19.014Z,2.80
2023-02-21T11:21:26.891Z,2.10
2023-02-21T11:26:38.399Z,3.70
2023-02-21T11:31:47.538Z,2.60
2023-02-21T11:37:04.336Z,2.40
2023-02-21T11:42:30.598Z,2.40
2023-02-21T11:47:46.550Z,2.30
2023-02-21T11:53:02.149Z,3.90
2023-02-21T11:58:25.865Z,2.40
2023-02-21T12:04:10.383Z,3.10
2023-02-21T12:09:27.824Z,3.00
2023-02-21T12:14:57.874Z,3.10
2023-02-21T12:20:19.435Z,2.70
2023-02-21T12:25:36.480Z,3.20
2023-02-21T12:30:58.202Z,3.40
2023-02-21T12:36:25.587Z,3.50
2023-02-21T12:41:57.574Z,2.90
2023-02-21T12:47:12.148Z,3.40
2023-02-21T12:52:25.001Z,3.70
2023-02-21T12:57:44.157Z,2.10
2023-02-21T13:03:07.939Z,3.40
2023-02-21T13:08:22.518Z,2.50
2023-02-21T13:13:34.286Z,2.90
2023-02-21T13:18:46.054Z,2.60
2023-02-21T13:24:16.969Z,2.50
2023-02-21T13:29:46.179Z,2.60
2023-02-21T13:35:02.216Z,3.00
2023-02-21T13:40:24.629Z,2.70
2023-02-21T13:45:33.097Z,2.40
2023-02-21T13:50:50.830Z,2.70
2023-02-21T13:56:18.544Z,3.10
2023-02-21T14:01:53.365Z,2.70
2023-02-21T14:07:02.486Z,2.70
2023-02-21T14:12:16.456Z,2.10
2023-02-21T14:17:32.343Z,2.30
2023-02-21T14:22:40.879Z,2.70
2023-02-21T14:27:49.494Z,3.80
2023-02-21T14:33:20.417Z,2.70
2023-02-21T14:38:30.052Z,3.20
2023-02-21T14:43:55.713Z,2.60
2023-02-21T14:49:35.404Z,3.20
2023-02-21T14:55:37.350Z,2.90
2023-02-21T15:01:00.790Z,2.20
2023-02-21T15:06:14.511Z,3.10
2023-02-21T15:11:28.505Z,2.50
2023-02-21T15:16:37.940Z,2.40
2023-02-21T15:21:49.645Z,3.10
2023-02-21T15:27:13.776Z,3.20
2023-02-21T15:32:23.013Z,3.00
2023-02-21T15:37:34.517Z,2.80
2023-02-21T15:42:45.723Z,2.80
2023-02-21T15:47:55.121Z,3.20
2023-02-21T15:53:16.601Z,3.00
2023-02-21T15:58:27.436Z,3.50
2023-02-21T16:03:38.688Z,3.10
2023-02-21T16:09:04.504Z,2.90
2023-02-21T16:14:24.304Z,3.10
2023-02-21T16:19:36.121Z,2.90
2023-02-21T16:24:43.392Z,2.80
2023-02-21T16:29:52.171Z,3.20
2023-02-21T16:35:01.080Z,2.90
2023-02-21T16:40:17.112Z,2.40
2023-02-21T16:45:26.400Z,3.80
2023-02-21T16:50:37.170Z,2.90
2023-02-21T16:55:45.589Z,3.50
2023-02-21T17:00:55.163Z,3.50
2023-02-21T17:06:05.049Z,2.80
2023-02-21T17:11:14.389Z,3.60
2023-02-21T17:16:23.692Z,3.60
2023-02-21T17:21:32.499Z,2.90
2023-02-21T17:26:41.134Z,2.40
2023-02-21T17:31:53.643Z,3.60
2023-02-21T17:37:02.441Z,4.30
2023-02-21T17:42:12.180Z,3.20
2023-02-21T17:47:23.435Z,3.80
2023-02-21T17:52:32.408Z,3.90
2023-02-21T17:57:41.328Z,6.10
2023-02-21T18:02:49.902Z,5.20
2023-02-21T18:07:58.612Z,6.20
2023-02-21T18:13:06.861Z,4.60
2023-02-21T18:18:15.906Z,5.30
2023-02-21T18:23:24.307Z,4.70
2023-02-21T18:28:33.327Z,4.60
2023-02-21T18:33:41.682Z,5.40
2023-02-21T18:38:50.261Z,5.30
2023-02-21T18:43:58.513Z,5.20
2023-02-21T18:49:07.576Z,3.20
2023-02-21T18:54:16.072Z,4.70
2023-02-21T18:59:25.889Z,3.70
2023-02-21T19:04:35.472Z,7.50
2023-02-21T19:09:46.320Z,4.90
2023-02-21T19:14:54.722Z,5.30
2023-02-21T19:20:06.062Z,20.30
2023-02-21T19:25:14.832Z,23.60
2023-02-21T19:30:24.129Z,20.80
2023-02-21T19:35:33.784Z,17.20
2023-02-21T19:40:42.064Z,20.70
2023-02-21T19:45:53.373Z,19.80
2023-02-21T19:51:05.461Z,14.30
2023-02-21T19:56:14.457Z,8.00
2023-02-21T20:01:23.470Z,2.60
2023-02-21T20:06:35.962Z,1.00
2023-02-21T20:11:44.531Z,2.30
2023-02-21T20:16:54.188Z,1.80
2023-02-21T20:22:02.361Z,3.30
2023-02-21T20:27:10.900Z,3.80
2023-02-21T20:32:19.043Z,11.90
2023-02-21T20:37:31.711Z,7.50
2023-02-21T20:42:39.877Z,5.40
2023-02-21T20:47:47.615Z,2.80
2023-02-21T20:52:55.847Z,12.70
2023-02-21T20:58:03.398Z,22.50
2023-02-21T21:03:15.566Z,29.00
2023-02-21T21:08:23.971Z,19.40
2023-02-21T21:13:33.190Z,17.90
2023-02-21T21:18:42.039Z,18.60
2023-02-21T21:23:50.707Z,19.90
2023-02-21T21:28:59.129Z,27.30
2023-02-21T21:34:07.575Z,29.20
2023-02-21T21:39:16.669Z,21.30
2023-02-21T21:44:25.482Z,15.50
2023-02-21T21:49:35.404Z,9.40
2023-02-21T21:54:46.751Z,13.80
2023-02-21T21:59:54.892Z,26.60
2023-02-21T22:05:03.641Z,29.70
2023-02-21T22:10:12.591Z,25.20
2023-02-21T22:15:24.083Z,37.30
2023-02-21T22:20:32.575Z,33.20
2023-02-21T22:25:40.916Z,24.70
2023-02-21T22:30:49.557Z,23.70
2023-02-21T22:35:58.448Z,21.90
2023-02-21T22:41:09.884Z,23.00
2023-02-21T22:46:17.402Z,22.40
2023-02-21T22:51:29.829Z,18.50
2023-02-21T22:56:38.723Z,16.60
2023-02-21T23:01:47.211Z,12.30
2023-02-21T23:06:55.552Z,5.50
2023-02-21T23:12:04.618Z,6.40
2023-02-21T23:17:12.724Z,5.90
2023-02-21T23:22:21.008Z,4.40
2023-02-21T23:27:28.329Z,3.80
2023-02-21T23:32:36.049Z,3.10
2023-02-21T23:37:44.652Z,3.20
2023-02-21T23:42:55.525Z,3.70
2023-02-21T23:48:03.707Z,3.10
2023-02-21T23:53:15.016Z,3.50
2023-02-21T23:58:23.192Z,3.30
